createdAt,value
2022-12-23T00:03:01.443Z,99.46
2022-12-23T00:06:12.488Z,99.14
2022-12-23T00:09:15.214Z,99.40
2022-12-23T00:12:36.766Z,99.87
2022-12-23T00:15:39.766Z,100.00
2022-12-23T00:18:43.761Z,100.00
2022-12-23T00:21:47.166Z,99.51
2022-12-23T00:24:50.097Z,100.00
2022-12-23T00:28:01.603Z,100.00
2022-12-23T00:31:07.859Z,100.00
2022-12-23T00:34:12.232Z,100.00
2022-12-23T00:37:15.221Z,100.00
2022-12-23T00:40:38.391Z,100.00
2022-12-23T00:43:41.389Z,99.49
2022-12-23T00:46:44.398Z,99.74
2022-12-23T00:49:47.360Z,99.95
2022-12-23T00:52:50.042Z,99.33
2022-12-23T00:55:53.120Z,99.14
2022-12-23T00:58:56.161Z,100.00
2022-12-23T01:02:17.903Z,99.81
2022-12-23T01:05:49.718Z,99.45
2022-12-23T01:08:52.763Z,99.05
2022-12-23T01:11:55.409Z,99.15
2022-12-23T01:14:58.703Z,99.43
2022-12-23T01:18:01.403Z,100.00
2022-12-23T01:21:07.376Z,100.00
2022-12-23T01:24:12.480Z,99.97
2022-12-23T01:27:15.508Z,99.82
2022-12-23T01:30:18.226Z,99.54
2022-12-23T01:33:21.537Z,99.40
2022-12-23T01:36:24.215Z,99.16
2022-12-23T01:39:27.221Z,98.23
2022-12-23T01:42:47.481Z,97.75
2022-12-23T01:45:50.688Z,97.36
2022-12-23T01:48:54.079Z,97.15
2022-12-23T01:51:57.098Z,96.51
2022-12-23T01:54:59.857Z,96.29
2022-12-23T01:58:26.044Z,96.51
2022-12-23T02:01:48.929Z,98.15
2022-12-23T02:04:53.098Z,97.51
2022-12-23T02:08:15.297Z,97.89
2022-12-23T02:11:33.489Z,98.13
2022-12-23T02:15:12.834Z,97.84
2022-12-23T02:18:44.500Z,97.76
2022-12-23T02:22:13.353Z,97.92
2022-12-23T02:25:31.453Z,97.85
2022-12-23T02:29:15.278Z,99.53
2022-12-23T02:32:50.503Z,98.76
2022-12-23T02:36:02.111Z,98.52
2022-12-23T02:39:15.696Z,97.59
2022-12-23T02:42:24.388Z,97.09
2022-12-23T02:45:45.827Z,96.56
2022-12-23T02:48:56.889Z,96.59
2022-12-23T02:52:03.921Z,96.68
2022-12-23T02:55:13.997Z,96.26
2022-12-23T02:58:21.216Z,96.21
2022-12-23T03:01:26.409Z,96.63
2022-12-23T03:04:29.492Z,96.39
2022-12-23T03:07:44.155Z,97.07
2022-12-23T03:11:02.163Z,97.09
2022-12-23T03:14:16.936Z,96.91
2022-12-23T03:17:48.542Z,97.44
2022-12-23T03:21:14.811Z,97.41
2022-12-23T03:24:30.757Z,99.33
2022-12-23T03:27:41.263Z,98.51
2022-12-23T03:30:49.803Z,98.21
2022-12-23T03:33:59.820Z,97.64
2022-12-23T03:37:06.853Z,100.00
2022-12-23T03:40:16.743Z,99.15
2022-12-23T03:43:27.333Z,99.55
2022-12-23T03:46:38.571Z,99.56
2022-12-23T03:50:12.366Z,100.00
2022-12-23T03:53:36.768Z,100.00
2022-12-23T03:56:46.365Z,100.00
2022-12-23T03:59:53.569Z,99.79
2022-12-23T04:03:12.449Z,99.68
2022-12-23T04:06:18.484Z,99.80
2022-12-23T04:09:23.084Z,100.00
2022-12-23T04:12:27.796Z,100.00
2022-12-23T04:15:30.997Z,99.41
2022-12-23T04:18:34.184Z,98.96
2022-12-23T04:21:37.356Z,98.75
2022-12-23T04:24:40.471Z,98.65
2022-12-23T04:27:43.517Z,99.25
2022-12-23T04:30:46.635Z,99.12
2022-12-23T04:33:49.412Z,98.76
2022-12-23T04:36:52.531Z,98.92
2022-12-23T04:39:55.191Z,98.78
2022-12-23T04:42:58.467Z,98.35
2022-12-23T04:46:01.166Z,98.42
2022-12-23T04:49:04.154Z,98.31
2022-12-23T04:52:08.361Z,98.17
2022-12-23T04:55:12.167Z,98.14
2022-12-23T04:58:14.839Z,98.36
2022-12-23T05:01:17.814Z,98.60
2022-12-23T05:04:20.568Z,98.53
2022-12-23T05:07:23.633Z,98.68
2022-12-23T05:10:26.388Z,98.97
2022-12-23T05:13:29.548Z,98.61
2022-12-23T05:16:34.281Z,99.23
2022-12-23T05:19:37.392Z,100.00
2022-12-23T05:22:40.172Z,100.00
2022-12-23T05:25:43.176Z,100.00
2022-12-23T05:28:46.949Z,99.31
2022-12-23T05:31:50.007Z,99.45
2022-12-23T05:34:52.979Z,99.35
2022-12-23T05:37:57.154Z,100.00
2022-12-23T05:40:59.955Z,100.00
2022-12-23T05:44:02.941Z,100.00
2022-12-23T05:47:06.300Z,100.00
2022-12-23T05:50:09.686Z,100.00
2022-12-23T05:53:12.433Z,100.00
2022-12-23T05:56:15.397Z,99.77
2022-12-23T05:59:18.255Z,99.66
2022-12-23T06:02:22.397Z,99.72
2022-12-23T06:05:25.775Z,100.00
2022-12-23T06:08:28.480Z,99.81
2022-12-23T06:11:31.531Z,99.81
2022-12-23T06:14:34.441Z,99.59
2022-12-23T06:17:37.657Z,99.17
2022-12-23T06:20:40.380Z,99.20
2022-12-23T06:23:43.476Z,98.84
2022-12-23T06:26:49.731Z,98.49
2022-12-23T06:29:56.526Z,98.53
2022-12-23T06:32:59.146Z,99.01
2022-12-23T06:36:02.282Z,100.00
2022-12-23T06:39:04.992Z,99.53
2022-12-23T06:42:08.030Z,99.16
2022-12-23T06:45:11.277Z,99.33
2022-12-23T06:48:14.356Z,99.07
2022-12-23T06:51:17.023Z,98.98
2022-12-23T06:54:21.000Z,99.15
2022-12-23T06:57:23.690Z,99.70
2022-12-23T07:00:26.772Z,99.85
2022-12-23T07:03:29.523Z,100.00
2022-12-23T07:06:32.909Z,100.00
2022-12-23T07:09:35.734Z,100.00
2022-12-23T07:12:39.477Z,100.00
2022-12-23T07:15:42.242Z,100.00
2022-12-23T07:18:45.372Z,100.00
2022-12-23T07:21:48.134Z,100.00
2022-12-23T07:24:53.957Z,100.00
2022-12-23T07:27:57.091Z,100.00
2022-12-23T07:31:00.230Z,100.00
2022-12-23T07:34:02.933Z,100.00
2022-12-23T07:37:06.077Z,100.00
2022-12-23T07:40:09.922Z,100.00
2022-12-23T07:43:13.670Z,100.00
2022-12-23T07:46:16.418Z,100.00
2022-12-23T07:49:19.430Z,100.00
2022-12-23T07:52:23.062Z,100.00
2022-12-23T07:55:26.294Z,100.00
2022-12-23T07:58:28.964Z,100.00
2022-12-23T08:01:32.167Z,100.00
2022-12-23T08:04:37.405Z,100.00
2022-12-23T08:07:45.239Z,100.00
2022-12-23T08:10:48.907Z,100.00
2022-12-23T08:13:52.943Z,100.00
2022-12-23T08:16:56.813Z,100.00
2022-12-23T08:19:59.739Z,100.00
2022-12-23T08:23:11.620Z,100.00
2022-12-23T08:26:19.527Z,100.00
2022-12-23T08:29:22.533Z,100.00
2022-12-23T08:32:28.655Z,100.00
2022-12-23T08:35:31.810Z,100.00
2022-12-23T08:38:35.915Z,99.76
2022-12-23T08:41:44.566Z,99.26
2022-12-23T08:44:47.330Z,99.40
2022-12-23T08:47:50.279Z,99.85
2022-12-23T08:50:53.067Z,99.25
2022-12-23T08:54:01.110Z,99.11
2022-12-23T08:57:04.259Z,95.67
2022-12-23T09:00:07.994Z,94.21
2022-12-23T09:03:11.829Z,94.42
2022-12-23T09:06:26.562Z,94.75
2022-12-23T09:09:32.844Z,94.66
2022-12-23T09:12:36.201Z,93.57
2022-12-23T09:15:45.709Z,90.58
2022-12-23T09:18:48.769Z,88.87
2022-12-23T09:21:51.555Z,84.24
2022-12-23T09:24:59.894Z,83.40
2022-12-23T09:28:07.409Z,82.11
2022-12-23T09:31:12.261Z,79.01
2022-12-23T09:34:15.204Z,80.06
2022-12-23T09:37:18.278Z,80.63
2022-12-23T09:40:22.063Z,76.87
2022-12-23T09:43:58.772Z,76.84
2022-12-23T09:47:05.150Z,76.65
2022-12-23T09:50:35.688Z,73.51
2022-12-23T09:54:16.611Z,75.50
2022-12-23T09:57:35.592Z,68.80
2022-12-23T10:01:00.736Z,67.89
2022-12-23T10:04:28.970Z,67.07
2022-12-23T10:07:37.760Z,67.54
2022-12-23T10:11:00.414Z,69.35
2022-12-23T10:14:12.070Z,69.65
2022-12-23T10:17:30.605Z,71.81
2022-12-23T10:21:20.326Z,68.33
2022-12-23T10:24:34.263Z,68.41
2022-12-23T10:27:41.977Z,68.42
2022-12-23T10:31:23.839Z,68.33
2022-12-23T10:34:33.454Z,68.56
2022-12-23T10:37:52.064Z,68.37
2022-12-23T10:41:08.928Z,67.14
2022-12-23T10:44:21.236Z,66.55
2022-12-23T10:47:45.265Z,66.47
2022-12-23T10:51:02.640Z,66.48
2022-12-23T10:54:10.536Z,64.08
2022-12-23T10:57:18.121Z,62.59
2022-12-23T11:00:24.374Z,63.33
2022-12-23T11:03:29.372Z,66.13
2022-12-23T11:06:37.612Z,63.86
2022-12-23T11:09:55.449Z,67.52
2022-12-23T11:12:58.972Z,66.32
2022-12-23T11:16:17.372Z,63.05
2022-12-23T11:19:21.449Z,65.16
2022-12-23T11:22:25.626Z,62.74
2022-12-23T11:25:38.361Z,61.79
2022-12-23T11:28:50.092Z,57.99
2022-12-23T11:31:53.076Z,59.57
2022-12-23T11:34:56.697Z,58.16
2022-12-23T11:38:02.043Z,58.32
2022-12-23T11:41:05.853Z,57.48
2022-12-23T11:44:31.138Z,56.93
2022-12-23T11:47:42.142Z,57.42
2022-12-23T11:50:44.837Z,56.10
2022-12-23T11:53:47.786Z,55.56
2022-12-23T11:56:53.157Z,56.04
2022-12-23T12:00:00.999Z,54.91
2022-12-23T12:03:07.318Z,55.18
2022-12-23T12:06:15.816Z,55.11
2022-12-23T12:09:19.071Z,56.04
2022-12-23T12:12:22.444Z,58.33
2022-12-23T12:15:48.992Z,60.28
2022-12-23T12:18:56.214Z,59.88
2022-12-23T12:22:06.063Z,61.63
2022-12-23T12:25:22.197Z,65.49
2022-12-23T12:28:32.911Z,68.08
2022-12-23T12:31:42.087Z,70.14
2022-12-23T12:34:57.603Z,70.74
2022-12-23T12:38:20.807Z,72.47
2022-12-23T12:41:29.236Z,74.03
2022-12-23T12:44:58.592Z,73.89
2022-12-23T12:48:31.506Z,76.41
2022-12-23T12:51:49.866Z,77.64
2022-12-23T12:55:13.763Z,79.19
2022-12-23T12:58:22.136Z,78.78
2022-12-23T13:01:53.931Z,79.76
2022-12-23T13:05:29.518Z,81.32
2022-12-23T13:08:38.213Z,79.60
2022-12-23T13:11:47.865Z,79.82
2022-12-23T13:15:15.500Z,81.19
2022-12-23T13:18:56.803Z,80.79
2022-12-23T13:22:15.248Z,81.75
2022-12-23T13:25:31.603Z,82.94
2022-12-23T13:28:46.572Z,83.77
2022-12-23T13:31:59.842Z,84.92
2022-12-23T13:35:31.327Z,84.96
2022-12-23T13:38:54.703Z,85.91
2022-12-23T13:42:05.612Z,86.25
2022-12-23T13:45:18.212Z,86.51
2022-12-23T13:48:26.776Z,87.36
2022-12-23T13:51:29.679Z,87.38
2022-12-23T13:54:46.609Z,87.47
2022-12-23T13:58:11.676Z,89.88
2022-12-23T14:01:14.250Z,89.27
2022-12-23T14:04:37.566Z,87.78
2022-12-23T14:07:45.093Z,87.56
2022-12-23T14:11:20.102Z,87.68
2022-12-23T14:14:25.279Z,88.45
2022-12-23T14:18:04.350Z,88.15
2022-12-23T14:21:36.360Z,88.67
2022-12-23T14:24:51.976Z,88.86
2022-12-23T14:27:57.311Z,89.24
2022-12-23T14:31:03.288Z,88.90
2022-12-23T14:34:18.055Z,89.65
2022-12-23T14:37:21.083Z,89.68
2022-12-23T14:40:38.922Z,88.91
2022-12-23T14:43:45.945Z,89.66
2022-12-23T14:46:48.704Z,90.33
2022-12-23T14:49:52.005Z,90.34
2022-12-23T14:53:02.932Z,90.76
2022-12-23T14:56:32.252Z,90.78
2022-12-23T15:00:01.620Z,90.58
2022-12-23T15:03:04.884Z,89.76
2022-12-23T15:06:08.731Z,90.54
2022-12-23T15:09:32.761Z,90.84
2022-12-23T15:12:38.832Z,91.20
2022-12-23T15:15:58.989Z,91.51
2022-12-23T15:19:19.443Z,91.33
2022-12-23T15:22:28.518Z,90.71
2022-12-23T15:25:39.772Z,91.02
2022-12-23T15:28:43.078Z,90.76
2022-12-23T15:31:50.714Z,90.13
2022-12-23T15:35:07.213Z,89.57
2022-12-23T15:38:15.177Z,89.58
2022-12-23T15:41:18.871Z,89.74
2022-12-23T15:44:24.469Z,89.64
2022-12-23T15:47:39.092Z,89.10
2022-12-23T15:50:42.306Z,90.32
2022-12-23T15:53:47.765Z,91.15
2022-12-23T15:56:53.783Z,91.32
2022-12-23T15:59:59.443Z,91.79
2022-12-23T16:03:06.473Z,91.81
2022-12-23T16:06:17.612Z,91.82
2022-12-23T16:09:20.231Z,91.67
2022-12-23T16:12:26.644Z,91.02
2022-12-23T16:15:33.327Z,90.53
2022-12-23T16:18:47.331Z,90.52
2022-12-23T16:21:50.908Z,90.58
2022-12-23T16:24:58.067Z,90.80
2022-12-23T16:28:11.279Z,90.75
2022-12-23T16:31:17.909Z,90.46
2022-12-23T16:34:20.797Z,90.91
2022-12-23T16:37:24.904Z,90.50
2022-12-23T16:40:27.651Z,90.89
2022-12-23T16:43:31.266Z,91.15
2022-12-23T16:46:37.906Z,92.66
2022-12-23T16:49:41.675Z,92.06
2022-12-23T16:52:45.935Z,91.78
2022-12-23T16:55:56.668Z,91.39
2022-12-23T16:59:03.996Z,94.32
2022-12-23T17:02:19.532Z,93.08
2022-12-23T17:05:23.459Z,92.83
2022-12-23T17:08:26.475Z,92.44
2022-12-23T17:11:40.575Z,92.28
2022-12-23T17:14:43.619Z,91.96
2022-12-23T17:17:47.543Z,91.63
2022-12-23T17:20:52.887Z,91.56
2022-12-23T17:24:11.096Z,92.14
2022-12-23T17:27:17.488Z,92.63
2022-12-23T17:30:23.067Z,92.83
2022-12-23T17:33:31.308Z,92.04
2022-12-23T17:36:35.495Z,91.89
2022-12-23T17:39:38.688Z,91.46
2022-12-23T17:42:42.181Z,91.36
2022-12-23T17:45:47.753Z,91.26
2022-12-23T17:48:53.513Z,91.08
2022-12-23T17:51:56.532Z,91.41
2022-12-23T17:54:59.231Z,91.26
2022-12-23T17:58:02.292Z,91.28
2022-12-23T18:01:05.303Z,91.32
2022-12-23T18:04:08.382Z,91.79
2022-12-23T18:07:12.737Z,91.60
2022-12-23T18:10:19.093Z,91.11
2022-12-23T18:13:21.953Z,91.61
2022-12-23T18:16:24.980Z,91.21
2022-12-23T18:19:27.655Z,91.48
2022-12-23T18:22:31.282Z,91.74
2022-12-23T18:25:34.006Z,91.62
2022-12-23T18:28:37.101Z,91.25
2022-12-23T18:31:51.239Z,90.54
2022-12-23T18:34:55.697Z,91.30
2022-12-23T18:38:02.163Z,92.14
2022-12-23T18:41:05.239Z,92.95
2022-12-23T18:44:17.604Z,94.53
2022-12-23T18:47:22.991Z,95.27
2022-12-23T18:50:26.229Z,95.14
2022-12-23T18:53:29.302Z,95.16
2022-12-23T18:56:31.901Z,95.91
2022-12-23T18:59:37.796Z,95.50
2022-12-23T19:02:40.707Z,95.66
2022-12-23T19:05:48.995Z,95.73
2022-12-23T19:08:51.699Z,94.94
2022-12-23T19:11:55.122Z,95.10
2022-12-23T19:14:58.034Z,95.40
2022-12-23T19:18:01.166Z,95.03
2022-12-23T19:21:05.185Z,94.59
2022-12-23T19:24:11.096Z,94.67
2022-12-23T19:27:13.803Z,95.53
2022-12-23T19:30:18.696Z,95.11
2022-12-23T19:33:21.867Z,94.55
2022-12-23T19:36:25.211Z,94.02
2022-12-23T19:39:28.046Z,93.46
2022-12-23T19:42:31.213Z,92.91
2022-12-23T19:45:35.411Z,92.50
2022-12-23T19:48:39.079Z,93.13
2022-12-23T19:51:41.910Z,93.76
2022-12-23T19:54:47.564Z,93.50
2022-12-23T19:57:52.133Z,92.88
2022-12-23T20:01:06.652Z,92.71
2022-12-23T20:04:10.716Z,93.79
2022-12-23T20:07:13.805Z,94.17
2022-12-23T20:10:18.235Z,93.83
2022-12-23T20:13:21.316Z,93.48
2022-12-23T20:16:25.150Z,93.25
2022-12-23T20:19:28.489Z,93.01
2022-12-23T20:22:31.927Z,92.81
2022-12-23T20:25:34.738Z,93.54
2022-12-23T20:28:38.648Z,93.65
2022-12-23T20:31:42.004Z,94.41
2022-12-23T20:34:45.218Z,93.93
2022-12-23T20:37:48.153Z,93.04
2022-12-23T20:40:51.195Z,92.64
2022-12-23T20:44:31.611Z,92.43
2022-12-23T20:47:18.532Z,92.21
2022-12-23T20:50:21.993Z,91.61
2022-12-23T20:53:25.153Z,91.48
2022-12-23T20:56:32.425Z,91.52
2022-12-23T20:59:35.496Z,91.47
2022-12-23T21:02:38.152Z,91.31
2022-12-23T21:05:41.674Z,91.33
2022-12-23T21:08:47.071Z,91.18
2022-12-23T21:11:50.174Z,91.13
2022-12-23T21:14:52.904Z,91.49
2022-12-23T21:17:56.111Z,91.78
2022-12-23T21:21:00.395Z,92.18
2022-12-23T21:24:06.377Z,92.28
2022-12-23T21:27:09.051Z,92.34
2022-12-23T21:30:12.331Z,92.54
2022-12-23T21:33:15.028Z,92.48
2022-12-23T21:36:21.006Z,92.56
2022-12-23T21:39:23.792Z,92.34
2022-12-23T21:42:27.704Z,92.50
2022-12-23T21:45:30.682Z,92.46
2022-12-23T21:48:36.077Z,92.54
2022-12-23T21:51:40.782Z,92.64
2022-12-23T21:54:46.347Z,92.69
2022-12-23T21:57:49.079Z,92.60
2022-12-23T22:00:52.843Z,92.35
2022-12-23T22:03:57.169Z,92.57
2022-12-23T22:06:59.895Z,92.76
2022-12-23T22:10:03.102Z,92.44
2022-12-23T22:13:06.762Z,92.90
2022-12-23T22:16:15.593Z,93.04
2022-12-23T22:19:18.386Z,93.18
2022-12-23T22:22:22.369Z,92.53
2022-12-23T22:25:25.604Z,92.68
2022-12-23T22:28:31.337Z,92.93
2022-12-23T22:31:58.266Z,93.24
2022-12-23T22:35:02.445Z,93.47
2022-12-23T22:38:06.826Z,93.50
2022-12-23T22:41:10.937Z,93.31
2022-12-23T22:44:15.927Z,93.05
2022-12-23T22:47:21.321Z,92.76
2022-12-23T22:50:25.850Z,92.79
2022-12-23T22:53:32.107Z,93.26
2022-12-23T22:56:36.972Z,94.03
2022-12-23T22:59:44.931Z,94.43
2022-12-23T23:02:49.934Z,95.17
2022-12-23T23:06:12.493Z,95.01
2022-12-23T23:09:20.595Z,94.92
2022-12-23T23:15:48.167Z,95.20
2022-12-23T23:18:54.130Z,95.17
2022-12-23T23:21:57.991Z,94.81
2022-12-23T23:25:02.173Z,94.81
2022-12-23T23:28:12.693Z,95.17
2022-12-23T23:34:43.717Z,95.84
2022-12-23T23:37:48.109Z,96.47
2022-12-23T23:40:56.907Z,96.66
2022-12-23T23:44:01.675Z,98.34
2022-12-23T23:47:06.388Z,96.88
2022-12-23T23:50:12.736Z,96.42
2022-12-23T23:53:16.951Z,96.98
2022-12-23T23:56:25.368Z,97.35
2022-12-23T23:59:31.065Z,97.41
